createdAt,value
2017-09-03T00:00:25.440Z,8.23
2017-09-03T00:02:53.594Z,6.87
2017-09-03T00:05:21.738Z,11.70
2017-09-03T00:07:50.009Z,7.10
2017-09-03T00:10:18.135Z,9.43
2017-09-03T00:12:46.281Z,9.33
2017-09-03T00:15:14.462Z,4.90
2017-09-03T00:17:42.595Z,8.17
2017-09-03T00:20:10.759Z,7.03
2017-09-03T00:22:38.893Z,9.30
2017-09-03T00:25:07.048Z,6.60
2017-09-03T00:27:35.190Z,6.57
2017-09-03T00:30:03.343Z,10.70
2017-09-03T00:32:31.473Z,9.20
2017-09-03T00:34:59.622Z,7.73
2017-09-03T00:37:27.753Z,9.83
2017-09-03T00:39:55.910Z,13.80
2017-09-03T00:42:24.045Z,11.27
2017-09-03T00:44:52.202Z,12.43
2017-09-03T00:47:20.337Z,7.77
2017-09-03T00:49:48.490Z,10.83
2017-09-03T00:52:16.651Z,9.37
2017-09-03T00:54:44.798Z,10.20
2017-09-03T00:57:12.966Z,15.93
2017-09-03T00:59:41.086Z,12.50
2017-09-03T01:02:09.224Z,10.70
2017-09-03T01:04:37.387Z,15.70
2017-09-03T01:07:05.542Z,12.57
2017-09-03T01:09:33.674Z,10.97
2017-09-03T01:12:01.828Z,11.83
2017-09-03T01:14:30.031Z,13.07
2017-09-03T01:16:58.175Z,12.97
2017-09-03T01:19:26.351Z,13.73
2017-09-03T01:21:54.481Z,10.33
2017-09-03T01:24:22.627Z,11.93
2017-09-03T01:26:50.781Z,10.33
2017-09-03T01:29:18.915Z,10.60
2017-09-03T01:31:47.114Z,13.00
2017-09-03T01:34:15.241Z,9.40
2017-09-03T01:36:43.364Z,12.37
2017-09-03T01:39:11.531Z,11.40
2017-09-03T01:41:39.658Z,11.60
2017-09-03T01:44:07.801Z,10.90
2017-09-03T01:46:35.938Z,12.73
2017-09-03T01:49:04.102Z,7.93
2017-09-03T01:51:32.246Z,12.53
2017-09-03T01:54:00.374Z,11.67
2017-09-03T01:56:28.517Z,9.03
2017-09-03T01:58:56.650Z,5.83
2017-09-03T02:01:24.814Z,9.27
2017-09-03T02:03:52.937Z,8.50
2017-09-03T02:06:21.067Z,16.40
2017-09-03T02:08:49.224Z,11.67
2017-09-03T02:11:17.358Z,8.30
2017-09-03T02:13:45.494Z,9.40
2017-09-03T02:16:13.642Z,9.43
2017-09-03T02:18:41.790Z,16.80
2017-09-03T02:21:09.964Z,10.00
2017-09-03T02:23:38.098Z,20.43
2017-09-03T02:26:06.226Z,13.60
2017-09-03T02:28:34.391Z,12.30
2017-09-03T02:31:02.522Z,14.90
2017-09-03T02:33:30.795Z,11.17
2017-09-03T02:35:58.922Z,11.47
2017-09-03T02:38:27.062Z,13.60
2017-09-03T02:40:55.203Z,10.53
2017-09-03T02:43:23.338Z,10.30
2017-09-03T02:45:51.521Z,8.70
2017-09-03T02:48:19.653Z,16.30
2017-09-03T02:50:47.793Z,11.60
2017-09-03T02:53:15.941Z,10.13
2017-09-03T02:55:44.066Z,10.17
2017-09-03T02:58:12.234Z,16.33
2017-09-03T03:00:41.269Z,9.53
2017-09-03T03:03:09.419Z,19.33
2017-09-03T03:05:37.590Z,9.67
2017-09-03T03:08:05.726Z,9.43
2017-09-03T03:10:33.847Z,9.60
2017-09-03T03:13:01.999Z,8.67
2017-09-03T03:15:30.158Z,11.40
2017-09-03T03:17:58.306Z,10.90
2017-09-03T03:20:26.468Z,11.73
2017-09-03T03:22:54.594Z,15.17
2017-09-03T03:25:22.751Z,12.43
2017-09-03T03:27:50.890Z,10.03
2017-09-03T03:30:19.068Z,15.00
2017-09-03T03:32:47.204Z,9.90
2017-09-03T03:35:15.357Z,11.93
2017-09-03T03:37:43.520Z,14.67
2017-09-03T03:40:11.668Z,13.23
2017-09-03T03:42:39.826Z,17.53
2017-09-03T03:45:07.949Z,13.63
2017-09-03T03:47:36.247Z,11.27
2017-09-03T03:50:04.412Z,17.40
2017-09-03T03:52:32.591Z,16.00
2017-09-03T03:55:00.752Z,15.03
2017-09-03T03:57:28.876Z,15.23
2017-09-03T03:59:57.016Z,18.00
2017-09-03T04:02:25.219Z,16.47
2017-09-03T04:04:53.362Z,15.07
2017-09-03T04:07:21.549Z,14.80
2017-09-03T04:09:49.686Z,24.20
2017-09-03T04:12:17.823Z,13.63
2017-09-03T04:14:45.965Z,11.27
2017-09-03T04:17:14.159Z,11.13
2017-09-03T04:19:42.291Z,21.97
2017-09-03T04:22:10.436Z,12.03
2017-09-03T04:24:38.556Z,14.97
2017-09-03T04:27:06.706Z,13.63
2017-09-03T04:29:34.833Z,15.80
2017-09-03T04:32:03.111Z,15.67
2017-09-03T04:34:31.246Z,13.20
2017-09-03T04:36:59.383Z,14.40
2017-09-03T04:39:27.551Z,16.87
2017-09-03T04:41:55.680Z,15.53
2017-09-03T04:44:23.818Z,17.93
2017-09-03T04:46:51.971Z,15.70
2017-09-03T04:49:20.111Z,19.03
2017-09-03T04:51:48.242Z,14.20
2017-09-03T04:54:16.398Z,22.40
2017-09-03T04:56:44.529Z,16.97
2017-09-03T04:59:12.684Z,21.93
2017-09-03T05:01:40.814Z,14.83
2017-09-03T05:04:08.946Z,18.63
2017-09-03T05:06:37.115Z,20.97
2017-09-03T05:09:05.250Z,16.13
2017-09-03T05:11:33.424Z,30.63
2017-09-03T05:14:01.562Z,14.60
2017-09-03T05:16:29.729Z,20.27
2017-09-03T05:18:57.871Z,20.50
2017-09-03T05:21:26.020Z,20.37
2017-09-03T05:23:54.184Z,21.17
2017-09-03T05:26:22.333Z,20.07
2017-09-03T05:28:50.460Z,16.10
2017-09-03T05:31:18.611Z,23.10
2017-09-03T05:33:46.741Z,31.87
2017-09-03T05:36:14.872Z,20.77
2017-09-03T05:38:43.043Z,16.50
2017-09-03T05:41:11.185Z,15.90
2017-09-03T05:43:39.322Z,32.63
2017-09-03T05:46:07.492Z,20.17
2017-09-03T05:48:35.626Z,28.97
2017-09-03T05:51:03.754Z,24.67
2017-09-03T05:53:32.017Z,19.97
2017-09-03T05:56:00.149Z,19.67
2017-09-03T05:58:28.276Z,22.10
2017-09-03T06:00:56.443Z,23.20
2017-09-03T06:03:24.592Z,13.67
2017-09-03T06:05:52.736Z,18.30
2017-09-03T06:08:20.890Z,24.67
2017-09-03T06:10:49.030Z,15.13
2017-09-03T06:13:17.972Z,18.10
2017-09-03T06:15:46.135Z,21.27
2017-09-03T06:18:14.275Z,22.03
2017-09-03T06:20:42.439Z,23.37
2017-09-03T06:23:10.565Z,19.77
2017-09-03T06:25:38.717Z,17.37
2017-09-03T06:28:06.867Z,17.60
2017-09-03T06:30:35.029Z,14.57
2017-09-03T06:33:03.174Z,18.87
2017-09-03T06:35:31.314Z,15.50
2017-09-03T06:37:59.480Z,23.93
2017-09-03T06:40:27.617Z,16.40
2017-09-03T06:42:55.778Z,21.60
2017-09-03T06:45:23.910Z,15.10
2017-09-03T06:47:52.170Z,16.20
2017-09-03T06:50:20.307Z,14.43
2017-09-03T06:52:48.433Z,14.03
2017-09-03T06:55:16.593Z,23.90
2017-09-03T06:57:44.718Z,19.83
2017-09-03T07:00:12.879Z,19.17
2017-09-03T07:02:41.030Z,12.17
2017-09-03T07:05:09.156Z,18.07
2017-09-03T07:07:37.315Z,15.27
2017-09-03T07:10:05.465Z,18.00
2017-09-03T07:12:33.608Z,16.80
2017-09-03T07:15:01.766Z,11.30
2017-09-03T07:17:29.915Z,17.10
2017-09-03T07:19:58.083Z,11.00
2017-09-03T07:22:26.237Z,16.50
2017-09-03T07:24:54.386Z,18.13
2017-09-03T07:27:22.537Z,12.87
2017-09-03T07:29:50.679Z,15.53
2017-09-03T07:32:18.839Z,13.60
2017-09-03T07:34:46.969Z,9.53
2017-09-03T07:37:15.093Z,14.10
2017-09-03T07:39:43.268Z,10.07
2017-09-03T07:42:11.393Z,14.87
2017-09-03T07:44:39.532Z,14.20
2017-09-03T07:47:07.688Z,11.80
2017-09-03T07:49:35.826Z,12.27
2017-09-03T07:52:03.954Z,16.60
2017-09-03T07:54:32.129Z,17.00
2017-09-03T07:57:00.268Z,11.90
2017-09-03T07:59:28.536Z,19.17
2017-09-03T08:01:56.720Z,17.40
2017-09-03T08:04:24.853Z,19.87
2017-09-03T08:06:53.008Z,11.60
2017-09-03T08:09:21.190Z,17.83
2017-09-03T08:11:49.333Z,11.73
2017-09-03T08:14:17.494Z,13.33
2017-09-03T08:16:45.630Z,12.80
2017-09-03T08:19:13.890Z,10.93
2017-09-03T08:21:42.034Z,13.40
2017-09-03T08:24:10.175Z,11.30
2017-09-03T08:26:38.334Z,16.37
2017-09-03T08:29:06.480Z,12.53
2017-09-03T08:31:34.625Z,11.90
2017-09-03T08:34:02.767Z,11.83
2017-09-03T08:36:30.941Z,9.83
2017-09-03T08:38:59.083Z,13.23
2017-09-03T08:41:27.223Z,10.13
2017-09-03T08:43:55.380Z,11.07
2017-09-03T08:46:23.502Z,10.90
2017-09-03T08:48:51.759Z,8.00
2017-09-03T08:51:19.897Z,10.30
2017-09-03T08:53:48.031Z,11.80
2017-09-03T08:56:16.180Z,9.03
2017-09-03T08:58:44.326Z,11.77
2017-09-03T09:01:12.482Z,10.23
2017-09-03T09:03:40.651Z,9.27
2017-09-03T09:06:08.788Z,10.40
2017-09-03T09:08:36.953Z,6.73
2017-09-03T09:11:05.104Z,11.10
2017-09-03T09:13:33.256Z,12.63
2017-09-03T09:16:01.406Z,10.30
2017-09-03T09:18:29.599Z,10.80
2017-09-03T09:20:57.733Z,11.60
2017-09-03T09:23:25.866Z,8.60
2017-09-03T09:25:54.028Z,16.03
2017-09-03T09:28:22.170Z,10.30
2017-09-03T09:30:50.318Z,5.90
2017-09-03T09:33:18.467Z,7.23
2017-09-03T09:35:46.731Z,7.70
2017-09-03T09:38:14.860Z,9.50
2017-09-03T09:40:43.015Z,7.07
2017-09-03T09:43:11.180Z,6.63
2017-09-03T09:45:39.314Z,8.70
2017-09-03T09:48:07.477Z,5.50
2017-09-03T09:50:35.614Z,6.10
2017-09-03T09:53:03.882Z,5.37
2017-09-03T09:55:32.030Z,7.60
2017-09-03T09:58:00.168Z,11.80
2017-09-03T10:00:28.318Z,7.50
2017-09-03T10:02:56.475Z,11.30
2017-09-03T10:05:24.753Z,7.00
2017-09-03T10:07:52.877Z,6.10
2017-09-03T10:10:21.002Z,9.50
2017-09-03T10:12:49.164Z,8.00
2017-09-03T10:15:17.284Z,8.10
2017-09-03T10:17:45.437Z,8.10
2017-09-03T10:20:13.573Z,9.33
2017-09-03T10:22:41.713Z,14.13
2017-09-03T10:25:09.878Z,19.23
2017-09-03T10:27:38.025Z,22.47
2017-09-03T10:30:06.211Z,16.00
2017-09-03T10:32:34.345Z,11.60
2017-09-03T10:35:02.477Z,11.27
2017-09-03T10:37:30.634Z,7.83
2017-09-03T10:39:58.766Z,5.03
2017-09-03T10:42:26.922Z,4.73
2017-09-03T10:44:55.051Z,7.07
2017-09-03T10:47:23.198Z,10.70
2017-09-03T10:49:51.348Z,7.50
2017-09-03T10:52:19.468Z,7.10
2017-09-03T10:54:47.586Z,13.87
2017-09-03T10:57:15.741Z,8.73
2017-09-03T10:59:43.864Z,6.10
2017-09-03T11:04:46.553Z,5.80
2017-09-03T11:07:14.676Z,11.43
2017-09-03T11:09:42.830Z,7.20
2017-09-03T11:12:10.957Z,7.60
2017-09-03T11:14:39.079Z,7.57
2017-09-03T11:17:07.243Z,5.23
2017-09-03T11:19:35.371Z,9.23
2017-09-03T11:22:03.536Z,7.60
2017-09-03T11:24:31.676Z,9.00
2017-09-03T11:26:59.830Z,6.60
2017-09-03T11:29:27.952Z,9.47
2017-09-03T11:31:56.097Z,8.07
2017-09-03T11:34:24.227Z,8.23
2017-09-03T11:36:52.377Z,6.97
2017-09-03T11:39:20.507Z,5.30
2017-09-03T11:41:48.647Z,8.17
2017-09-03T11:44:16.794Z,7.13
2017-09-03T11:46:44.933Z,5.73
2017-09-03T11:49:13.095Z,6.03
2017-09-03T11:51:41.244Z,14.40
2017-09-03T11:54:09.368Z,6.97
2017-09-03T11:56:37.527Z,10.03
2017-09-03T11:59:05.653Z,11.20
2017-09-03T12:01:33.803Z,9.10
2017-09-03T12:04:01.934Z,5.47
2017-09-03T12:06:30.197Z,7.00
2017-09-03T12:08:58.320Z,10.13
2017-09-03T12:11:26.454Z,8.20
2017-09-03T12:13:54.609Z,8.00
2017-09-03T12:16:22.753Z,13.00
2017-09-03T12:18:50.901Z,8.93
2017-09-03T12:21:19.035Z,12.07
2017-09-03T12:23:47.206Z,6.87
2017-09-03T12:26:15.336Z,16.17
2017-09-03T12:28:43.459Z,9.00
2017-09-03T12:31:11.606Z,8.83
2017-09-03T12:33:39.730Z,9.17
2017-09-03T12:36:07.877Z,11.47
2017-09-03T12:38:36.048Z,7.60
2017-09-03T12:41:04.183Z,7.93
2017-09-03T12:43:32.323Z,9.83
2017-09-03T12:46:00.491Z,7.67
2017-09-03T12:48:28.631Z,6.23
2017-09-03T12:50:56.774Z,7.13
2017-09-03T12:53:25.046Z,7.50
2017-09-03T12:55:53.182Z,8.80
2017-09-03T12:58:21.301Z,4.97
2017-09-03T13:00:49.554Z,4.40
2017-09-03T13:03:17.682Z,5.90
2017-09-03T13:05:45.809Z,4.40
2017-09-03T13:08:13.956Z,6.20
2017-09-03T13:10:42.088Z,4.97
2017-09-03T13:13:10.247Z,9.10
2017-09-03T13:15:38.375Z,7.03
2017-09-03T13:18:06.504Z,4.30
2017-09-03T13:20:34.649Z,4.17
2017-09-03T13:23:02.773Z,3.70
2017-09-03T13:25:30.929Z,5.33
2017-09-03T13:27:59.068Z,4.70
2017-09-03T13:30:27.216Z,5.20
2017-09-03T13:32:55.375Z,5.80
2017-09-03T13:35:23.500Z,6.80
2017-09-03T13:37:51.660Z,6.23
2017-09-03T13:40:19.795Z,4.50
2017-09-03T13:42:47.943Z,4.40
2017-09-03T13:45:16.189Z,6.57
2017-09-03T13:47:44.307Z,8.37
2017-09-03T13:50:12.448Z,5.70
2017-09-03T13:52:40.587Z,6.10
2017-09-03T13:55:08.744Z,5.57
2017-09-03T13:57:36.894Z,4.67
2017-09-03T14:00:05.064Z,6.50
2017-09-03T14:02:33.192Z,5.90
2017-09-03T14:05:01.444Z,4.97
2017-09-03T14:07:29.595Z,7.13
2017-09-03T14:09:57.730Z,4.27
2017-09-03T14:12:25.885Z,8.60
2017-09-03T14:14:54.013Z,3.97
2017-09-03T14:17:22.147Z,5.70
2017-09-03T14:19:50.299Z,4.63
2017-09-03T14:22:18.427Z,2.70
2017-09-03T14:24:46.573Z,4.60
2017-09-03T14:27:14.698Z,4.63
2017-09-03T14:29:42.817Z,3.90
2017-09-03T14:32:10.974Z,6.30
2017-09-03T14:34:39.107Z,3.80
2017-09-03T14:37:07.229Z,4.83
2017-09-03T14:39:35.462Z,6.40
2017-09-03T14:42:03.595Z,5.00
2017-09-03T14:44:31.721Z,4.40
2017-09-03T14:46:59.875Z,4.63
2017-09-03T14:49:28.009Z,4.70
2017-09-03T14:51:56.143Z,4.23
2017-09-03T14:54:24.296Z,3.27
2017-09-03T14:56:52.430Z,7.67
2017-09-03T14:59:21.448Z,3.50
2017-09-03T15:01:49.610Z,6.60
2017-09-03T15:04:17.746Z,5.63
2017-09-03T15:06:45.897Z,3.60
2017-09-03T15:09:14.038Z,4.17
2017-09-03T15:11:42.198Z,3.63
2017-09-03T15:14:10.339Z,3.20
2017-09-03T15:16:38.471Z,4.13
2017-09-03T15:19:06.725Z,3.23
2017-09-03T15:21:34.853Z,3.10
2017-09-03T15:24:03.030Z,5.30
2017-09-03T15:26:31.157Z,8.70
2017-09-03T15:28:59.287Z,3.00
2017-09-03T15:31:27.432Z,5.50
2017-09-03T15:33:55.558Z,7.43
2017-09-03T15:36:23.709Z,3.50
2017-09-03T15:38:51.829Z,3.33
2017-09-03T15:41:19.981Z,3.73
2017-09-03T15:43:48.105Z,5.23
2017-09-03T15:46:16.243Z,3.23
2017-09-03T15:48:44.383Z,5.47
2017-09-03T15:51:12.506Z,4.30
2017-09-03T15:53:40.667Z,2.90
2017-09-03T15:56:08.803Z,2.97
2017-09-03T15:58:36.968Z,3.00
2017-09-03T16:01:05.085Z,3.90
2017-09-03T16:03:33.251Z,4.53
2017-09-03T16:06:01.374Z,5.67
2017-09-03T16:08:29.507Z,6.70
2017-09-03T16:10:57.692Z,4.40
2017-09-03T16:13:25.835Z,3.43
2017-09-03T16:15:53.966Z,3.30
2017-09-03T16:18:22.123Z,5.30
2017-09-03T16:20:50.257Z,3.20
2017-09-03T16:23:18.413Z,6.23
2017-09-03T16:25:46.541Z,3.80
2017-09-03T16:28:14.660Z,5.00
2017-09-03T16:30:42.823Z,3.80
2017-09-03T16:33:10.967Z,2.83
2017-09-03T16:35:39.099Z,4.17
2017-09-03T16:38:07.245Z,3.13
2017-09-03T16:40:35.386Z,3.37
2017-09-03T16:43:03.901Z,2.80
2017-09-03T16:45:32.087Z,4.23
2017-09-03T16:48:00.358Z,3.97
2017-09-03T16:50:28.511Z,2.67
2017-09-03T16:52:56.648Z,3.30
2017-09-03T16:55:24.899Z,3.57
2017-09-03T16:57:53.028Z,5.43
2017-09-03T17:00:21.153Z,3.72
2017-09-03T17:02:49.323Z,5.07
2017-09-03T17:05:17.450Z,5.10
2017-09-03T17:07:45.594Z,3.57
2017-09-03T17:10:13.739Z,4.23
2017-09-03T17:12:41.889Z,3.47
2017-09-03T17:15:10.031Z,5.20
2017-09-03T17:17:38.267Z,5.23
2017-09-03T17:20:06.398Z,7.77
2017-09-03T17:22:34.573Z,4.43
2017-09-03T17:25:02.714Z,4.40
2017-09-03T17:27:30.862Z,3.63
2017-09-03T17:30:01.049Z,2.67
2017-09-03T17:32:29.460Z,3.63
2017-09-03T17:34:57.582Z,3.20
2017-09-03T17:37:33.291Z,3.27
2017-09-03T17:40:12.285Z,2.37
2017-09-03T17:42:45.884Z,3.97
2017-09-03T17:45:14.006Z,2.53
2017-09-03T17:47:42.149Z,2.57
2017-09-03T17:50:10.303Z,2.57
2017-09-03T17:52:38.461Z,9.93
2017-09-03T17:55:06.619Z,2.10
2017-09-03T17:57:34.888Z,2.60
2017-09-03T18:00:03.017Z,2.20
2017-09-03T18:02:31.192Z,2.40
2017-09-03T18:04:59.333Z,2.90
2017-09-03T18:07:27.483Z,2.43
2017-09-03T18:09:55.631Z,3.07
2017-09-03T18:12:23.784Z,3.53
2017-09-03T18:14:52.041Z,3.10
2017-09-03T18:17:20.191Z,3.60
2017-09-03T18:19:48.373Z,3.67
2017-09-03T18:22:16.505Z,2.60
2017-09-03T18:24:44.775Z,3.47
2017-09-03T18:27:12.936Z,11.83
2017-09-03T18:29:41.790Z,12.63
2017-09-03T18:32:10.001Z,5.23
2017-09-03T18:34:38.230Z,5.23
2017-09-03T18:37:06.410Z,5.97
2017-09-03T18:39:36.376Z,7.40
2017-09-03T18:42:06.450Z,8.13
2017-09-03T18:44:34.837Z,7.90
2017-09-03T18:47:03.365Z,6.50
2017-09-03T18:49:32.379Z,4.97
2017-09-03T18:52:15.773Z,3.57
2017-09-03T18:54:47.581Z,2.77
2017-09-03T18:57:16.471Z,2.60
2017-09-03T19:00:00.207Z,2.37
2017-09-03T19:02:30.541Z,3.40
2017-09-03T19:05:02.687Z,3.33
2017-09-03T19:07:31.934Z,2.87
2017-09-03T19:10:00.987Z,5.03
2017-09-03T19:12:30.224Z,2.93
2017-09-03T19:14:59.495Z,3.13
2017-09-03T19:17:28.900Z,2.10
2017-09-03T19:19:58.106Z,5.37
2017-09-03T19:22:27.345Z,3.37
2017-09-03T19:24:56.659Z,2.33
2017-09-03T19:27:26.146Z,3.73
2017-09-03T19:29:55.760Z,4.87
2017-09-03T19:32:25.051Z,3.27
2017-09-03T19:34:54.463Z,3.40
2017-09-03T19:37:27.125Z,3.60
2017-09-03T19:39:56.639Z,3.50
2017-09-03T19:42:25.844Z,3.73
2017-09-03T19:44:55.059Z,2.37
2017-09-03T19:47:24.496Z,3.60
2017-09-03T19:49:53.832Z,5.10
2017-09-03T19:52:23.073Z,3.40
2017-09-03T19:54:52.319Z,3.90
2017-09-03T19:57:21.315Z,2.93
2017-09-03T19:59:50.407Z,2.43
2017-09-03T20:02:19.517Z,4.17
2017-09-03T20:04:48.599Z,3.53
2017-09-03T20:07:17.478Z,3.40
2017-09-03T20:09:46.623Z,2.70
2017-09-03T20:12:15.574Z,5.23
2017-09-03T20:14:44.365Z,2.70
2017-09-03T20:17:13.432Z,2.40
2017-09-03T20:19:42.426Z,4.23
2017-09-03T20:22:11.229Z,3.43
2017-09-03T20:24:39.488Z,5.53
2017-09-03T20:27:07.661Z,3.87
2017-09-03T20:29:35.810Z,3.97
2017-09-03T20:32:04.005Z,3.67
2017-09-03T20:34:32.178Z,3.60
2017-09-03T20:37:00.326Z,2.80
2017-09-03T20:39:28.529Z,3.90
2017-09-03T20:41:56.707Z,2.93
2017-09-03T20:44:24.861Z,3.10
2017-09-03T20:46:53.027Z,3.20
2017-09-03T20:49:21.168Z,4.60
2017-09-03T20:51:49.302Z,5.47
2017-09-03T20:54:17.568Z,4.37
2017-09-03T20:56:45.688Z,4.03
2017-09-03T20:59:13.807Z,4.10
2017-09-03T21:01:41.965Z,2.70
2017-09-03T21:04:10.081Z,2.93
2017-09-03T21:06:38.201Z,3.30
2017-09-03T21:09:06.353Z,3.30
2017-09-03T21:11:34.490Z,3.70
2017-09-03T21:14:02.648Z,3.57
2017-09-03T21:16:30.779Z,2.90
2017-09-03T21:18:58.949Z,4.00
2017-09-03T21:21:27.079Z,5.57
2017-09-03T21:23:55.214Z,3.53
2017-09-03T21:26:23.365Z,2.57
2017-09-03T21:28:51.518Z,2.80
2017-09-03T21:31:19.687Z,2.20
2017-09-03T21:33:47.807Z,3.40
2017-09-03T21:36:15.948Z,4.80
2017-09-03T21:38:44.841Z,4.87
2017-09-03T21:41:13.106Z,3.40
2017-09-03T21:43:41.247Z,4.20
2017-09-03T21:46:09.380Z,3.73
2017-09-03T21:48:37.526Z,3.60
2017-09-03T21:51:05.658Z,3.40
2017-09-03T21:53:33.818Z,3.80
2017-09-03T21:56:01.961Z,3.00
2017-09-03T21:58:30.098Z,4.07
2017-09-03T22:00:58.264Z,3.10
2017-09-03T22:03:26.383Z,3.90
2017-09-03T22:05:54.529Z,4.03
2017-09-03T22:08:22.671Z,3.23
2017-09-03T22:10:50.803Z,2.53
2017-09-03T22:13:18.971Z,2.60
2017-09-03T22:15:47.085Z,3.03
2017-09-03T22:18:15.235Z,3.20
2017-09-03T22:20:43.353Z,2.63
2017-09-03T22:23:11.498Z,2.40
2017-09-03T22:25:39.634Z,4.10
2017-09-03T22:28:07.780Z,2.57
2017-09-03T22:30:35.902Z,3.10
2017-09-03T22:33:04.034Z,2.87
2017-09-03T22:35:32.197Z,2.10
2017-09-03T22:38:00.318Z,2.10
2017-09-03T22:40:28.472Z,9.70
2017-09-03T22:42:56.603Z,2.10
2017-09-03T22:45:24.730Z,2.00
2017-09-03T22:47:52.878Z,2.10
2017-09-03T22:50:21.010Z,3.53
2017-09-03T22:52:49.174Z,2.20
2017-09-03T22:55:17.301Z,3.30
2017-09-03T22:57:45.446Z,1.57
2017-09-03T23:00:13.573Z,2.33
2017-09-03T23:02:41.711Z,7.50
2017-09-03T23:05:09.904Z,3.17
2017-09-03T23:07:38.051Z,4.40
2017-09-03T23:10:06.187Z,1.90
2017-09-03T23:12:34.366Z,1.80
2017-09-03T23:15:02.508Z,6.83
2017-09-03T23:17:30.658Z,3.23
2017-09-03T23:19:58.797Z,3.63
2017-09-03T23:22:35.955Z,2.23
2017-09-03T23:25:04.128Z,2.37
2017-09-03T23:27:32.284Z,3.60
2017-09-03T23:30:00.414Z,8.00
2017-09-03T23:32:28.547Z,4.57
2017-09-03T23:34:56.696Z,2.63
2017-09-03T23:37:24.829Z,2.50
2017-09-03T23:39:52.980Z,2.17
2017-09-03T23:42:21.137Z,3.13
2017-09-03T23:44:49.266Z,2.10
2017-09-03T23:47:17.425Z,2.70
2017-09-03T23:49:45.567Z,3.23
2017-09-03T23:52:13.707Z,3.13
2017-09-03T23:54:41.866Z,2.33
2017-09-03T23:57:09.984Z,3.10
2017-09-03T23:59:38.132Z,2.80
